Ana Sayfa
METAR-TAF:

METAR-TAF

Havaalanları :

Kelale, İran

Enlem: 37-22-60N, Boylam: 55-27-07E, yükseklik: 130 m

Güncel hava durumu gözlemi

Rapor saat 11:00 UTC de 1 saat ve 11 dakika önce yapıldı.
Sakin rüzgar
Sıcaklık 10°C
Nem 87%
Basınç 1021 hPa
Görüş mesafesi: 5000 m
1500 ft yükseklikte parçalı çok bulutlu
8000 ft yükseklikte çok bulutlu
hafif yağmur, Pus

METAR: OINE 211100Z 00000KT 5000 -RA BR BKN015 OVC080 10/08 Q1021

Saat: 15:41 (12:11 UTC)


TAF: eksik

4.000'den fazla havaalanı için hava durumu gözlemleri ve tahminleri (METAR ve TAF raporları).

Kullanılabilir istasyonlar harita üzerinde sarı ve kırmızı noktalarla gösterilir.

İstasyonun adını görmek için fareyi noktanın üzerinde gezdirin.

Sonrasında hava gözlem ve tahminlerini görmek için tıklayın.

Haritayı değiştirmek için: yaklaştırmak için siyah artı işaretli yeşil düğmeye ve uzaklaştırmak için de eksi işaretli düğmeye hızla tıklayın; bitişik haritalar için yeşil okları kullanın.


METAR-TAF: